Time;durP1;ratioP1;P1;durP2;ratioP2;P2;SDS_P1;SDS_P2;PMS_P1;PMS_P2;Temp;Humidity;BMP_temperature;BMP_pressure;BME280_temperature;BME280_humidity;BME280_pressure;Samples;Min_cycle;Max_cycle;Signal;HPM_P1;HPM_P2
2021/12/15 17:36:41;;;;;;;17.63;6.25;;;;;;;;;;5067999;28;20449;-65
2021/12/15 17:39:13;;;;;;;16.20;9.10;;;;;;;;;;5052381;28;20369;-66
2021/12/15 17:41:40;;;;;;;10.82;5.68;;;;;;;;;;5057686;28;20035;-64
2021/12/15 17:44:08;;;;;;;8.07;5.70;;;;;;;;;;5058509;28;20304;-65
2021/12/15 17:46:36;;;;;;;13.52;6.43;;;;;;;;;;5051216;28;20091;-65
2021/12/15 17:49:08;;;;;;;13.52;6.53;;;;;;;;;;5051026;28;20368;-65
2021/12/15 17:51:46;;;;;;;9.30;5.05;;;;;;;;;;5046575;28;20025;-66
2021/12/15 17:54:12;;;;;;;9.13;5.32;;;;;;;;;;5048940;28;20075;-65
2021/12/15 17:56:38;;;;;;;9.00;5.43;;;;;;;;;;5037896;28;20032;-65
2021/12/15 17:59:06;;;;;;;14.40;6.85;;;;;;;;;;5046677;28;20112;-65
2021/12/15 18:01:32;;;;;;;11.10;4.38;;;;;;;;;;5031278;28;20028;-65
2021/12/15 18:03:58;;;;;;;13.07;8.10;;;;;;;;;;5044023;28;20018;-65
2021/12/15 18:06:24;;;;;;;69.90;37.58;;;;;;;;;;5044907;28;20037;-66
2021/12/15 18:08:50;;;;;;;19.80;11.82;;;;;;;;;;5041336;28;20025;-66
2021/12/15 18:11:18;;;;;;;24.77;13.93;;;;;;;;;;5046483;28;20029;-66
2021/12/15 18:13:47;;;;;;;18.33;11.75;;;;;;;;;;5046458;28;20029;-67
2021/12/15 18:16:13;;;;;;;8.13;4.93;;;;;;;;;;5049442;28;20032;-67
2021/12/15 18:18:39;;;;;;;12.73;8.32;;;;;;;;;;5053697;28;20060;-67
2021/12/15 18:21:06;;;;;;;9.98;5.40;;;;;;;;;;5069575;28;20034;-66
2021/12/15 18:23:32;;;;;;;4.88;3.70;;;;;;;;;;5053930;28;20025;-66
2021/12/15 18:25:58;;;;;;;17.02;8.40;;;;;;;;;;5046249;28;20021;-66
2021/12/15 18:28:24;;;;;;;8.65;5.90;;;;;;;;;;5048074;28;20025;-65
2021/12/15 18:30:53;;;;;;;28.42;13.55;;;;;;;;;;5054148;28;20444;-64
2021/12/15 18:33:21;;;;;;;104.43;46.58;;;;;;;;;;5049342;28;20033;-64
2021/12/15 18:35:47;;;;;;;227.48;108.57;;;;;;;;;;5053358;28;20072;-65
2021/12/15 18:38:14;;;;;;;181.15;89.15;;;;;;;;;;5048794;28;20074;-65
2021/12/15 18:40:42;;;;;;;73.65;41.80;;;;;;;;;;5047100;28;20025;-66
2021/12/15 18:43:08;;;;;;;69.70;41.72;;;;;;;;;;5048757;28;20032;-67
2021/12/15 18:45:34;;;;;;;57.70;33.85;;;;;;;;;;5051351;28;20074;-67
2021/12/15 18:48:01;;;;;;;66.82;32.67;;;;;;;;;;5039948;28;20116;-65
2021/12/15 18:50:34;;;;;;;34.50;17.98;;;;;;;;;;5033775;28;20065;-65
2021/12/15 18:53:00;;;;;;;;;;;;;;;;;;5032953;28;20021;-65
2021/12/15 18:55:26;;;;;;;13.23;6.57;;;;;;;;;;5032070;28;19983;-65
2021/12/15 18:57:52;;;;;;;11.32;6.10;;;;;;;;;;5039122;28;20033;-68
2021/12/15 19:00:21;;;;;;;18.33;8.10;;;;;;;;;;5027791;28;20481;-66
2021/12/15 19:02:47;;;;;;;19.23;9.18;;;;;;;;;;5034903;28;20021;-66
2021/12/15 19:05:13;;;;;;;12.00;6.80;;;;;;;;;;5031713;28;20499;-67
2021/12/15 19:07:39;;;;;;;14.00;6.05;;;;;;;;;;5036324;28;20029;-66
2021/12/15 19:10:06;;;;;;;12.70;6.25;;;;;;;;;;5032467;28;20030;-66
2021/12/15 19:12:32;;;;;;;25.45;14.90;;;;;;;;;;5032028;28;20033;-66
2021/12/15 19:14:58;;;;;;;30.90;18.63;;;;;;;;;;5032207;28;20029;-66
2021/12/15 19:17:26;;;;;;;47.90;31.33;;;;;;;;;;5031907;28;20013;-66
2021/12/15 19:19:53;;;;;;;32.17;21.77;;;;;;;;;;5031894;28;20028;-67
2021/12/15 19:22:21;;;;;;;12.70;6.90;;;;;;;;;;5032343;28;20026;-66
2021/12/15 19:24:47;;;;;;;30.83;20.90;;;;;;;;;;5031240;28;20392;-65
2021/12/15 19:27:14;;;;;;;16.20;8.65;;;;;;;;;;5031263;28;20025;-65
2021/12/15 19:29:40;;;;;;;40.53;30.15;;;;;;;;;;5032396;28;20040;-65
2021/12/15 19:32:07;;;;;;;45.88;34.60;;;;;;;;;;5032092;28;20026;-64
2021/12/15 19:34:33;;;;;;;34.03;26.70;;;;;;;;;;5031649;28;20550;-64
2021/12/15 19:36:59;;;;;;;13.00;10.32;;;;;;;;;;5032123;28;20089;-64
2021/12/15 19:39:25;;;;;;;17.65;14.35;;;;;;;;;;5038199;28;20021;-64
2021/12/15 19:41:51;;;;;;;16.42;11.43;;;;;;;;;;5051870;28;20078;-64
2021/12/15 19:44:18;;;;;;;10.90;5.78;;;;;;;;;;5039433;28;20064;-64
2021/12/15 19:46:45;;;;;;;10.65;6.00;;;;;;;;;;5036190;28;20476;-63
2021/12/15 19:49:11;;;;;;;13.35;9.00;;;;;;;;;;5034023;28;20037;-64
2021/12/15 19:51:37;;;;;;;11.70;8.18;;;;;;;;;;5044885;28;20025;-63
2021/12/15 19:54:06;;;;;;;10.13;5.07;;;;;;;;;;5042681;28;20464;-64
2021/12/15 19:56:32;;;;;;;8.25;5.28;;;;;;;;;;5031877;28;20084;-64
2021/12/15 19:58:58;;;;;;;7.32;4.07;;;;;;;;;;5030670;28;20415;-64
2021/12/15 20:01:29;;;;;;;10.70;3.78;;;;;;;;;;5031512;28;20206;-64
2021/12/15 20:03:55;;;;;;;8.57;5.53;;;;;;;;;;5031109;28;20022;-64
2021/12/15 20:06:21;;;;;;;17.38;12.98;;;;;;;;;;5030123;28;20108;-64
2021/12/15 20:08:47;;;;;;;16.35;12.95;;;;;;;;;;5034952;28;20030;-64
2021/12/15 20:11:17;;;;;;;17.33;9.70;;;;;;;;;;5061855;28;20028;-64
2021/12/15 20:13:44;;;;;;;11.35;7.35;;;;;;;;;;5030954;28;20415;-63
2021/12/15 20:16:10;;;;;;;15.75;5.78;;;;;;;;;;5030490;28;20036;-63
2021/12/15 20:18:36;;;;;;;7.88;4.45;;;;;;;;;;5033315;28;20044;-63
2021/12/15 20:21:02;;;;;;;7.15;4.65;;;;;;;;;;5040957;28;20102;-63
2021/12/15 20:23:28;;;;;;;10.02;4.32;;;;;;;;;;5030185;28;20029;-64
2021/12/15 20:25:55;;;;;;;8.35;3.67;;;;;;;;;;5029998;28;20028;-63
2021/12/15 20:28:21;;;;;;;7.47;3.50;;;;;;;;;;5044574;28;20553;-63
2021/12/15 20:30:48;;;;;;;6.07;4.18;;;;;;;;;;5047177;28;20384;-64
2021/12/15 20:33:15;;;;;;;10.45;6.43;;;;;;;;;;5030265;28;20026;-63
2021/12/15 20:35:41;;;;;;;12.35;5.85;;;;;;;;;;5031501;28;20590;-64
2021/12/15 20:38:07;;;;;;;8.48;5.05;;;;;;;;;;5035695;28;20496;-65
2021/12/15 20:40:33;;;;;;;12.55;4.45;;;;;;;;;;5030763;28;20057;-63
2021/12/15 20:43:00;;;;;;;11.98;4.90;;;;;;;;;;5030843;28;20060;-64
2021/12/15 20:45:26;;;;;;;10.20;4.45;;;;;;;;;;5030770;28;20025;-65
2021/12/15 20:47:52;;;;;;;8.52;3.40;;;;;;;;;;5030504;28;20076;-66
2021/12/15 20:50:19;;;;;;;6.50;3.80;;;;;;;;;;5030362;28;20109;-66
2021/12/15 20:52:45;;;;;;;10.02;4.20;;;;;;;;;;5037418;28;20565;-65
2021/12/15 20:55:11;;;;;;;10.82;4.75;;;;;;;;;;5049859;28;20462;-65
2021/12/15 20:57:37;;;;;;;9.45;3.85;;;;;;;;;;5046249;28;20057;-64
2021/12/15 21:00:08;;;;;;;7.90;4.30;;;;;;;;;;5005707;28;20475;-66
2021/12/15 21:02:34;;;;;;;9.43;4.90;;;;;;;;;;5012397;28;20052;-66
2021/12/15 21:05:00;;;;;;;11.13;4.60;;;;;;;;;;5015481;28;20029;-65
2021/12/15 21:07:26;;;;;;;11.30;4.30;;;;;;;;;;5034797;28;20033;-64
2021/12/15 21:09:53;;;;;;;28.25;4.90;;;;;;;;;;5029968;28;20396;-64
2021/12/15 21:12:19;;;;;;;9.50;4.50;;;;;;;;;;5029960;28;20033;-64
2021/12/15 21:14:46;;;;;;;9.85;5.28;;;;;;;;;;5030383;28;20026;-65
2021/12/15 21:17:13;;;;;;;10.77;5.68;;;;;;;;;;5029294;28;20017;-65
2021/12/15 21:19:39;;;;;;;7.07;3.75;;;;;;;;;;5061844;28;20025;-65
2021/12/15 21:22:07;;;;;;;16.80;5.07;;;;;;;;;;5030504;28;20018;-64
2021/12/15 21:24:33;;;;;;;7.47;3.65;;;;;;;;;;5030155;28;20418;-65
2021/12/15 21:26:59;;;;;;;13.63;5.32;;;;;;;;;;5042043;28;20505;-64
2021/12/15 21:29:27;;;;;;;18.95;8.13;;;;;;;;;;5049414;28;20100;-64
2021/12/15 21:31:53;;;;;;;9.57;6.53;;;;;;;;;;5049724;28;20025;-65
2021/12/15 21:34:19;;;;;;;12.23;5.57;;;;;;;;;;5047996;28;20048;-65
2021/12/15 21:36:45;;;;;;;9.93;6.13;;;;;;;;;;5050143;28;20021;-65
2021/12/15 21:39:11;;;;;;;13.00;7.00;;;;;;;;;;5042440;28;20021;-65
2021/12/15 21:41:37;;;;;;;13.80;6.60;;;;;;;;;;5030637;28;20032;-65
2021/12/15 21:44:04;;;;;;;14.60;6.75;;;;;;;;;;5049742;28;20135;-65
2021/12/15 21:46:33;;;;;;;15.70;6.65;;;;;;;;;;5040648;28;20353;-65
2021/12/15 21:49:00;;;;;;;13.48;7.20;;;;;;;;;;5020273;28;20477;-65
2021/12/15 21:51:26;;;;;;;18.75;8.73;;;;;;;;;;5029983;28;20072;-65
2021/12/15 21:53:52;;;;;;;10.60;6.50;;;;;;;;;;5029888;28;20499;-65
2021/12/15 21:56:18;;;;;;;13.80;6.57;;;;;;;;;;5031116;28;20030;-64
2021/12/15 21:58:44;;;;;;;11.23;7.68;;;;;;;;;;5029924;28;20029;-65
2021/12/15 22:01:10;;;;;;;10.15;5.38;;;;;;;;;;5029500;28;20021;-65
2021/12/15 22:03:37;;;;;;;10.48;5.60;;;;;;;;;;5028223;28;20030;-65
2021/12/15 22:06:03;;;;;;;14.50;6.40;;;;;;;;;;5030785;28;20033;-65
2021/12/15 22:08:30;;;;;;;13.85;5.95;;;;;;;;;;5029656;28;20451;-64
2021/12/15 22:10:57;;;;;;;10.50;6.00;;;;;;;;;;5028653;28;20035;-65
2021/12/15 22:13:23;;;;;;;12.45;5.68;;;;;;;;;;5033169;28;20024;-65
2021/12/15 22:15:50;;;;;;;7.40;5.28;;;;;;;;;;5028890;28;20029;-65
2021/12/15 22:18:17;;;;;;;11.55;6.53;;;;;;;;;;5028992;28;20294;-64
2021/12/15 22:20:43;;;;;;;10.80;6.03;;;;;;;;;;5040469;28;20076;-64
2021/12/15 22:23:09;;;;;;;10.77;5.38;;;;;;;;;;5031074;28;20590;-64
2021/12/15 22:25:36;;;;;;;10.93;5.22;;;;;;;;;;5032997;28;20029;-64
2021/12/15 22:28:02;;;;;;;10.45;4.68;;;;;;;;;;5033129;28;20087;-63
2021/12/15 22:30:29;;;;;;;7.80;4.35;;;;;;;;;;5033262;28;20389;-63
2021/12/15 22:33:00;;;;;;;8.25;4.93;;;;;;;;;;5044668;28;20076;-64
2021/12/15 22:35:27;;;;;;;5.72;3.40;;;;;;;;;;5015358;28;20050;-64
2021/12/15 22:37:53;;;;;;;8.93;4.25;;;;;;;;;;5053457;28;20509;-64
2021/12/15 22:40:19;;;;;;;6.75;4.32;;;;;;;;;;5053353;28;20025;-64
2021/12/15 22:42:45;;;;;;;10.00;5.05;;;;;;;;;;5052988;28;20426;-65
2021/12/15 22:45:12;;;;;;;5.95;4.45;;;;;;;;;;5052780;28;20028;-65
2021/12/15 22:47:39;;;;;;;11.38;4.65;;;;;;;;;;5044949;28;20398;-65
2021/12/15 22:50:05;;;;;;;9.63;4.82;;;;;;;;;;5033138;28;20033;-64
2021/12/15 22:52:31;;;;;;;8.18;4.85;;;;;;;;;;5038381;28;20029;-63
2021/12/15 22:54:58;;;;;;;12.30;4.10;;;;;;;;;;5038891;28;20038;-63
2021/12/15 22:57:24;;;;;;;11.65;5.05;;;;;;;;;;5050962;28;20025;-64
2021/12/15 22:59:50;;;;;;;18.13;6.45;;;;;;;;;;5042662;28;20092;-64
2021/12/15 23:02:17;;;;;;;7.00;4.82;;;;;;;;;;5031612;28;20542;-64
2021/12/15 23:04:50;;;;;;;15.07;5.05;;;;;;;;;;5031958;28;20025;-64
2021/12/15 23:07:17;;;;;;;8.32;5.55;;;;;;;;;;5031362;28;20078;-64
2021/12/15 23:09:43;;;;;;;11.15;6.97;;;;;;;;;;5033890;28;20541;-64
2021/12/15 23:12:09;;;;;;;9.73;6.10;;;;;;;;;;5042107;28;20053;-64
2021/12/15 23:14:43;;;;;;;13.30;5.53;;;;;;;;;;5032342;28;20029;-64
2021/12/15 23:17:10;;;;;;;10.82;5.70;;;;;;;;;;5031898;28;20025;-64
2021/12/15 23:19:37;;;;;;;12.88;6.20;;;;;;;;;;5032561;28;20053;-63
2021/12/15 23:22:03;;;;;;;14.43;6.32;;;;;;;;;;5032237;28;20021;-64
2021/12/15 23:24:30;;;;;;;9.07;4.97;;;;;;;;;;5033921;28;20479;-64
2021/12/15 23:26:58;;;;;;;10.05;5.38;;;;;;;;;;5044883;28;20024;-64
2021/12/15 23:29:25;;;;;;;15.02;6.03;;;;;;;;;;5035444;28;20083;-64
2021/12/15 23:31:51;;;;;;;10.93;6.22;;;;;;;;;;5050425;28;20400;-64
2021/12/15 23:34:17;;;;;;;11.45;5.95;;;;;;;;;;5051676;28;20021;-64
2021/12/15 23:36:44;;;;;;;12.13;6.57;;;;;;;;;;5047466;28;20531;-64
2021/12/15 23:39:28;;;;;;;19.35;6.82;;;;;;;;;;5036395;28;20034;-63
2021/12/15 23:42:54;;;;;;;16.20;6.63;;;;;;;;;;5032160;28;20350;-63
